sensor_id;sensor_type;location;lat;lon;timestamp;P1;durP1;ratioP1;P2;durP2;ratioP2
81714;SDS011;71125;44.066;2.982;2023-07-09T00:02:11;8.25;;;3.00;;
81714;SDS011;71125;44.066;2.982;2023-07-09T00:04:37;18.02;;;3.78;;
81714;SDS011;71125;44.066;2.982;2023-07-09T00:07:03;9.70;;;3.50;;
81714;SDS011;71125;44.066;2.982;2023-07-09T00:09:30;6.57;;;3.60;;
81714;SDS011;71125;44.066;2.982;2023-07-09T00:11:56;11.90;;;3.55;;
81714;SDS011;71125;44.066;2.982;2023-07-09T00:14:22;8.43;;;3.42;;
81714;SDS011;71125;44.066;2.982;2023-07-09T00:16:48;6.82;;;3.33;;
81714;SDS011;71125;44.066;2.982;2023-07-09T00:19:19;6.72;;;3.63;;
81714;SDS011;71125;44.066;2.982;2023-07-09T00:21:45;11.88;;;3.72;;
81714;SDS011;71125;44.066;2.982;2023-07-09T00:24:12;7.93;;;4.00;;
81714;SDS011;71125;44.066;2.982;2023-07-09T00:26:39;5.60;;;3.22;;
81714;SDS011;71125;44.066;2.982;2023-07-09T00:29:09;6.35;;;3.30;;
81714;SDS011;71125;44.066;2.982;2023-07-09T00:31:36;8.10;;;3.40;;
81714;SDS011;71125;44.066;2.982;2023-07-09T00:34:09;7.35;;;3.78;;
81714;SDS011;71125;44.066;2.982;2023-07-09T00:36:39;9.88;;;3.65;;
81714;SDS011;71125;44.066;2.982;2023-07-09T00:39:10;9.65;;;4.40;;
81714;SDS011;71125;44.066;2.982;2023-07-09T00:41:40;8.57;;;3.92;;
81714;SDS011;71125;44.066;2.982;2023-07-09T00:44:39;5.97;;;4.03;;
81714;SDS011;71125;44.066;2.982;2023-07-09T00:52:01;9.30;;;4.07;;
81714;SDS011;71125;44.066;2.982;2023-07-09T00:54:29;7.35;;;3.90;;
81714;SDS011;71125;44.066;2.982;2023-07-09T00:57:00;12.35;;;4.05;;
81714;SDS011;71125;44.066;2.982;2023-07-09T00:59:29;6.70;;;4.30;;
81714;SDS011;71125;44.066;2.982;2023-07-09T01:01:56;6.30;;;4.03;;
81714;SDS011;71125;44.066;2.982;2023-07-09T01:04:25;12.07;;;4.32;;
81714;SDS011;71125;44.066;2.982;2023-07-09T01:06:52;11.23;;;3.97;;
81714;SDS011;71125;44.066;2.982;2023-07-09T01:09:19;6.55;;;4.05;;
81714;SDS011;71125;44.066;2.982;2023-07-09T01:11:46;13.75;;;4.28;;
81714;SDS011;71125;44.066;2.982;2023-07-09T01:14:13;12.23;;;4.45;;
81714;SDS011;71125;44.066;2.982;2023-07-09T01:17:00;8.23;;;4.00;;
81714;SDS011;71125;44.066;2.982;2023-07-09T01:19:29;9.02;;;3.97;;
81714;SDS011;71125;44.066;2.982;2023-07-09T01:21:59;9.30;;;4.30;;
81714;SDS011;71125;44.066;2.982;2023-07-09T01:27:10;8.95;;;4.60;;
81714;SDS011;71125;44.066;2.982;2023-07-09T01:29:36;6.90;;;4.13;;
81714;SDS011;71125;44.066;2.982;2023-07-09T01:32:03;10.70;;;5.10;;
81714;SDS011;71125;44.066;2.982;2023-07-09T01:34:31;9.38;;;5.18;;
81714;SDS011;71125;44.066;2.982;2023-07-09T01:36:57;9.23;;;4.63;;
81714;SDS011;71125;44.066;2.982;2023-07-09T01:39:24;6.95;;;4.57;;
81714;SDS011;71125;44.066;2.982;2023-07-09T01:41:50;10.20;;;4.25;;
81714;SDS011;71125;44.066;2.982;2023-07-09T01:44:16;8.40;;;4.45;;
81714;SDS011;71125;44.066;2.982;2023-07-09T01:46:42;9.20;;;4.97;;
81714;SDS011;71125;44.066;2.982;2023-07-09T01:49:10;10.70;;;4.75;;
81714;SDS011;71125;44.066;2.982;2023-07-09T01:51:36;12.52;;;5.03;;
81714;SDS011;71125;44.066;2.982;2023-07-09T01:54:03;9.93;;;5.03;;
81714;SDS011;71125;44.066;2.982;2023-07-09T01:56:29;9.02;;;4.43;;
81714;SDS011;71125;44.066;2.982;2023-07-09T01:58:55;6.80;;;4.13;;
81714;SDS011;71125;44.066;2.982;2023-07-09T02:01:26;8.90;;;4.47;;
81714;SDS011;71125;44.066;2.982;2023-07-09T02:03:52;9.93;;;5.10;;
81714;SDS011;71125;44.066;2.982;2023-07-09T02:06:19;12.85;;;5.32;;
81714;SDS011;71125;44.066;2.982;2023-07-09T02:08:45;11.75;;;5.35;;
81714;SDS011;71125;44.066;2.982;2023-07-09T02:11:11;12.73;;;5.43;;
81714;SDS011;71125;44.066;2.982;2023-07-09T02:13:37;17.50;;;6.20;;
81714;SDS011;71125;44.066;2.982;2023-07-09T02:16:04;13.82;;;5.72;;
81714;SDS011;71125;44.066;2.982;2023-07-09T02:18:30;11.50;;;5.05;;
81714;SDS011;71125;44.066;2.982;2023-07-09T02:20:56;11.38;;;5.45;;
81714;SDS011;71125;44.066;2.982;2023-07-09T02:23:25;10.98;;;5.88;;
81714;SDS011;71125;44.066;2.982;2023-07-09T02:25:52;12.25;;;5.07;;
81714;SDS011;71125;44.066;2.982;2023-07-09T02:28:18;10.25;;;5.25;;
81714;SDS011;71125;44.066;2.982;2023-07-09T02:30:44;10.73;;;5.10;;
81714;SDS011;71125;44.066;2.982;2023-07-09T02:33:10;11.35;;;5.13;;
81714;SDS011;71125;44.066;2.982;2023-07-09T02:35:36;10.88;;;5.43;;
81714;SDS011;71125;44.066;2.982;2023-07-09T02:38:03;12.65;;;4.85;;
81714;SDS011;71125;44.066;2.982;2023-07-09T02:40:29;11.60;;;5.00;;
81714;SDS011;71125;44.066;2.982;2023-07-09T02:42:55;10.00;;;5.82;;
81714;SDS011;71125;44.066;2.982;2023-07-09T02:45:22;11.38;;;6.07;;
81714;SDS011;71125;44.066;2.982;2023-07-09T02:47:48;12.05;;;5.32;;
81714;SDS011;71125;44.066;2.982;2023-07-09T02:50:14;10.73;;;5.88;;
81714;SDS011;71125;44.066;2.982;2023-07-09T02:52:40;14.07;;;5.35;;
81714;SDS011;71125;44.066;2.982;2023-07-09T02:55:07;12.48;;;5.00;;
81714;SDS011;71125;44.066;2.982;2023-07-09T02:57:33;7.40;;;5.03;;
81714;SDS011;71125;44.066;2.982;2023-07-09T02:59:59;12.77;;;5.32;;
81714;SDS011;71125;44.066;2.982;2023-07-09T03:02:25;10.50;;;5.10;;
81714;SDS011;71125;44.066;2.982;2023-07-09T03:04:51;12.43;;;5.03;;
81714;SDS011;71125;44.066;2.982;2023-07-09T03:07:17;10.10;;;5.07;;
81714;SDS011;71125;44.066;2.982;2023-07-09T03:09:43;8.30;;;4.88;;
81714;SDS011;71125;44.066;2.982;2023-07-09T03:12:09;8.35;;;5.00;;
81714;SDS011;71125;44.066;2.982;2023-07-09T03:14:36;14.88;;;5.53;;
81714;SDS011;71125;44.066;2.982;2023-07-09T03:17:02;10.75;;;5.22;;
81714;SDS011;71125;44.066;2.982;2023-07-09T03:19:28;11.23;;;5.30;;
81714;SDS011;71125;44.066;2.982;2023-07-09T03:21:54;9.75;;;5.00;;
81714;SDS011;71125;44.066;2.982;2023-07-09T03:24:20;9.82;;;5.45;;
81714;SDS011;71125;44.066;2.982;2023-07-09T03:26:46;10.48;;;5.53;;
81714;SDS011;71125;44.066;2.982;2023-07-09T03:29:12;10.13;;;5.72;;
81714;SDS011;71125;44.066;2.982;2023-07-09T03:31:38;10.85;;;5.32;;
81714;SDS011;71125;44.066;2.982;2023-07-09T03:34:04;15.65;;;7.25;;
81714;SDS011;71125;44.066;2.982;2023-07-09T03:36:31;9.48;;;5.43;;
81714;SDS011;71125;44.066;2.982;2023-07-09T03:38:57;12.10;;;5.40;;
81714;SDS011;71125;44.066;2.982;2023-07-09T03:41:23;11.63;;;6.05;;
81714;SDS011;71125;44.066;2.982;2023-07-09T03:43:49;11.73;;;5.57;;
81714;SDS011;71125;44.066;2.982;2023-07-09T03:46:17;11.45;;;5.75;;
81714;SDS011;71125;44.066;2.982;2023-07-09T03:48:43;13.57;;;6.05;;
81714;SDS011;71125;44.066;2.982;2023-07-09T03:51:09;11.88;;;5.38;;
81714;SDS011;71125;44.066;2.982;2023-07-09T03:53:35;9.13;;;5.15;;
81714;SDS011;71125;44.066;2.982;2023-07-09T03:56:01;12.02;;;6.10;;
81714;SDS011;71125;44.066;2.982;2023-07-09T03:58:28;10.18;;;5.25;;
81714;SDS011;71125;44.066;2.982;2023-07-09T04:00:54;11.55;;;5.13;;
81714;SDS011;71125;44.066;2.982;2023-07-09T04:03:20;9.65;;;5.50;;
81714;SDS011;71125;44.066;2.982;2023-07-09T04:05:47;12.77;;;6.75;;
81714;SDS011;71125;44.066;2.982;2023-07-09T04:08:13;15.35;;;7.43;;
81714;SDS011;71125;44.066;2.982;2023-07-09T04:10:39;9.30;;;5.85;;
81714;SDS011;71125;44.066;2.982;2023-07-09T04:13:06;19.23;;;6.13;;
81714;SDS011;71125;44.066;2.982;2023-07-09T04:15:32;14.10;;;7.18;;
81714;SDS011;71125;44.066;2.982;2023-07-09T04:17:58;10.75;;;5.45;;
81714;SDS011;71125;44.066;2.982;2023-07-09T04:20:24;8.43;;;5.47;;
81714;SDS011;71125;44.066;2.982;2023-07-09T04:22:50;10.38;;;6.05;;
81714;SDS011;71125;44.066;2.982;2023-07-09T04:25:16;11.48;;;6.15;;
81714;SDS011;71125;44.066;2.982;2023-07-09T04:27:43;10.98;;;4.82;;
81714;SDS011;71125;44.066;2.982;2023-07-09T04:30:10;9.75;;;5.50;;
81714;SDS011;71125;44.066;2.982;2023-07-09T04:32:36;12.82;;;5.22;;
81714;SDS011;71125;44.066;2.982;2023-07-09T04:35:03;9.85;;;5.65;;
81714;SDS011;71125;44.066;2.982;2023-07-09T04:37:31;9.15;;;5.30;;
81714;SDS011;71125;44.066;2.982;2023-07-09T04:39:58;11.15;;;5.18;;
81714;SDS011;71125;44.066;2.982;2023-07-09T04:42:24;10.38;;;5.55;;
81714;SDS011;71125;44.066;2.982;2023-07-09T04:44:50;8.10;;;4.68;;
81714;SDS011;71125;44.066;2.982;2023-07-09T04:47:16;7.18;;;4.45;;
81714;SDS011;71125;44.066;2.982;2023-07-09T04:49:42;9.50;;;4.72;;
81714;SDS011;71125;44.066;2.982;2023-07-09T04:52:08;10.60;;;4.85;;
81714;SDS011;71125;44.066;2.982;2023-07-09T04:54:39;10.85;;;5.25;;
81714;SDS011;71125;44.066;2.982;2023-07-09T04:57:09;9.68;;;5.47;;
81714;SDS011;71125;44.066;2.982;2023-07-09T04:59:36;10.32;;;4.90;;
81714;SDS011;71125;44.066;2.982;2023-07-09T05:02:02;6.82;;;4.07;;
81714;SDS011;71125;44.066;2.982;2023-07-09T05:04:29;9.55;;;4.53;;
81714;SDS011;71125;44.066;2.982;2023-07-09T05:06:56;9.20;;;4.68;;
81714;SDS011;71125;44.066;2.982;2023-07-09T05:09:22;7.97;;;4.85;;
81714;SDS011;71125;44.066;2.982;2023-07-09T05:11:48;8.82;;;4.68;;
81714;SDS011;71125;44.066;2.982;2023-07-09T05:14:16;10.80;;;4.47;;
81714;SDS011;71125;44.066;2.982;2023-07-09T05:16:42;7.78;;;4.57;;
81714;SDS011;71125;44.066;2.982;2023-07-09T05:19:09;9.98;;;4.60;;
81714;SDS011;71125;44.066;2.982;2023-07-09T05:21:35;10.05;;;5.10;;
81714;SDS011;71125;44.066;2.982;2023-07-09T05:24:01;8.52;;;4.38;;
81714;SDS011;71125;44.066;2.982;2023-07-09T05:26:27;9.75;;;4.85;;
81714;SDS011;71125;44.066;2.982;2023-07-09T05:28:53;11.05;;;4.10;;
81714;SDS011;71125;44.066;2.982;2023-07-09T05:31:21;7.68;;;4.55;;
81714;SDS011;71125;44.066;2.982;2023-07-09T05:33:47;6.70;;;4.03;;
81714;SDS011;71125;44.066;2.982;2023-07-09T05:36:13;6.82;;;4.18;;
81714;SDS011;71125;44.066;2.982;2023-07-09T05:38:41;9.90;;;4.32;;
81714;SDS011;71125;44.066;2.982;2023-07-09T05:41:07;8.70;;;3.88;;
81714;SDS011;71125;44.066;2.982;2023-07-09T05:43:33;7.40;;;3.97;;
81714;SDS011;71125;44.066;2.982;2023-07-09T05:46:01;10.23;;;3.60;;
81714;SDS011;71125;44.066;2.982;2023-07-09T05:48:27;9.25;;;4.15;;
81714;SDS011;71125;44.066;2.982;2023-07-09T05:50:53;8.77;;;3.70;;
81714;SDS011;71125;44.066;2.982;2023-07-09T05:53:20;6.75;;;3.95;;
81714;SDS011;71125;44.066;2.982;2023-07-09T05:55:46;7.68;;;3.38;;
81714;SDS011;71125;44.066;2.982;2023-07-09T05:58:12;9.18;;;3.85;;
81714;SDS011;71125;44.066;2.982;2023-07-09T06:00:38;8.38;;;3.47;;
81714;SDS011;71125;44.066;2.982;2023-07-09T06:03:06;6.93;;;3.63;;
81714;SDS011;71125;44.066;2.982;2023-07-09T06:05:35;6.28;;;3.60;;
81714;SDS011;71125;44.066;2.982;2023-07-09T06:08:02;5.70;;;3.35;;
81714;SDS011;71125;44.066;2.982;2023-07-09T06:10:28;5.82;;;3.42;;
81714;SDS011;71125;44.066;2.982;2023-07-09T06:12:55;9.07;;;3.78;;
81714;SDS011;71125;44.066;2.982;2023-07-09T06:15:24;6.45;;;3.28;;
81714;SDS011;71125;44.066;2.982;2023-07-09T06:17:50;8.32;;;3.88;;
81714;SDS011;71125;44.066;2.982;2023-07-09T06:20:16;8.65;;;3.53;;
81714;SDS011;71125;44.066;2.982;2023-07-09T06:22:42;4.85;;;3.10;;
81714;SDS011;71125;44.066;2.982;2023-07-09T06:25:08;9.23;;;3.50;;
81714;SDS011;71125;44.066;2.982;2023-07-09T06:27:34;6.72;;;3.17;;
81714;SDS011;71125;44.066;2.982;2023-07-09T06:30:00;11.52;;;3.65;;
81714;SDS011;71125;44.066;2.982;2023-07-09T06:32:27;8.32;;;3.60;;
81714;SDS011;71125;44.066;2.982;2023-07-09T06:34:53;6.75;;;2.90;;
81714;SDS011;71125;44.066;2.982;2023-07-09T06:37:19;5.90;;;3.03;;
81714;SDS011;71125;44.066;2.982;2023-07-09T06:39:45;5.57;;;2.92;;
81714;SDS011;71125;44.066;2.982;2023-07-09T06:42:11;7.25;;;3.17;;
81714;SDS011;71125;44.066;2.982;2023-07-09T06:44:37;7.53;;;3.10;;
81714;SDS011;71125;44.066;2.982;2023-07-09T06:47:03;5.93;;;3.42;;
81714;SDS011;71125;44.066;2.982;2023-07-09T06:49:30;6.28;;;3.05;;
81714;SDS011;71125;44.066;2.982;2023-07-09T06:51:56;7.75;;;3.35;;
81714;SDS011;71125;44.066;2.982;2023-07-09T06:54:22;6.05;;;2.92;;
81714;SDS011;71125;44.066;2.982;2023-07-09T06:56:48;7.80;;;3.00;;
81714;SDS011;71125;44.066;2.982;2023-07-09T06:59:14;7.32;;;3.03;;
81714;SDS011;71125;44.066;2.982;2023-07-09T07:01:41;7.32;;;3.25;;
81714;SDS011;71125;44.066;2.982;2023-07-09T07:04:07;7.78;;;2.90;;
81714;SDS011;71125;44.066;2.982;2023-07-09T07:06:33;6.82;;;3.33;;
81714;SDS011;71125;44.066;2.982;2023-07-09T07:08:59;6.57;;;3.88;;
81714;SDS011;71125;44.066;2.982;2023-07-09T07:11:26;5.65;;;3.65;;
81714;SDS011;71125;44.066;2.982;2023-07-09T07:13:55;5.18;;;2.83;;
81714;SDS011;71125;44.066;2.982;2023-07-09T07:16:21;9.75;;;3.08;;
81714;SDS011;71125;44.066;2.982;2023-07-09T07:18:47;5.70;;;3.10;;
81714;SDS011;71125;44.066;2.982;2023-07-09T07:21:13;9.52;;;2.95;;
81714;SDS011;71125;44.066;2.982;2023-07-09T07:23:39;6.90;;;3.15;;
81714;SDS011;71125;44.066;2.982;2023-07-09T07:26:05;4.90;;;2.90;;
81714;SDS011;71125;44.066;2.982;2023-07-09T07:28:33;6.55;;;3.03;;
81714;SDS011;71125;44.066;2.982;2023-07-09T07:31:06;6.75;;;3.00;;
81714;SDS011;71125;44.066;2.982;2023-07-09T07:33:32;6.80;;;3.20;;
81714;SDS011;71125;44.066;2.982;2023-07-09T07:35:58;8.35;;;2.90;;
81714;SDS011;71125;44.066;2.982;2023-07-09T07:38:25;8.98;;;3.28;;
81714;SDS011;71125;44.066;2.982;2023-07-09T07:40:51;8.43;;;3.05;;
81714;SDS011;71125;44.066;2.982;2023-07-09T07:43:17;5.63;;;3.35;;
81714;SDS011;71125;44.066;2.982;2023-07-09T07:45:43;8.00;;;2.92;;
81714;SDS011;71125;44.066;2.982;2023-07-09T07:48:10;6.90;;;3.22;;
81714;SDS011;71125;44.066;2.982;2023-07-09T07:50:36;9.00;;;3.00;;
81714;SDS011;71125;44.066;2.982;2023-07-09T07:53:03;7.78;;;3.03;;
81714;SDS011;71125;44.066;2.982;2023-07-09T07:55:29;10.93;;;3.33;;
81714;SDS011;71125;44.066;2.982;2023-07-09T07:57:56;5.65;;;2.90;;
81714;SDS011;71125;44.066;2.982;2023-07-09T08:00:22;6.18;;;3.25;;
81714;SDS011;71125;44.066;2.982;2023-07-09T08:02:48;6.45;;;3.30;;
81714;SDS011;71125;44.066;2.982;2023-07-09T08:05:14;4.88;;;3.15;;
81714;SDS011;71125;44.066;2.982;2023-07-09T08:07:40;10.85;;;3.03;;
81714;SDS011;71125;44.066;2.982;2023-07-09T08:10:07;6.25;;;3.20;;
81714;SDS011;71125;44.066;2.982;2023-07-09T08:12:33;6.93;;;3.20;;
81714;SDS011;71125;44.066;2.982;2023-07-09T08:14:59;7.20;;;3.20;;
81714;SDS011;71125;44.066;2.982;2023-07-09T08:17:25;6.93;;;3.33;;
81714;SDS011;71125;44.066;2.982;2023-07-09T08:19:52;7.93;;;2.72;;
81714;SDS011;71125;44.066;2.982;2023-07-09T08:22:19;7.93;;;2.90;;
81714;SDS011;71125;44.066;2.982;2023-07-09T08:24:46;5.43;;;3.05;;
81714;SDS011;71125;44.066;2.982;2023-07-09T08:27:13;6.70;;;3.00;;
81714;SDS011;71125;44.066;2.982;2023-07-09T08:29:39;8.65;;;2.90;;
81714;SDS011;71125;44.066;2.982;2023-07-09T08:32:07;5.65;;;3.08;;
81714;SDS011;71125;44.066;2.982;2023-07-09T08:34:33;4.15;;;2.75;;
81714;SDS011;71125;44.066;2.982;2023-07-09T08:36:59;6.45;;;2.85;;
81714;SDS011;71125;44.066;2.982;2023-07-09T08:39:26;7.82;;;3.17;;
81714;SDS011;71125;44.066;2.982;2023-07-09T08:42:09;6.82;;;3.00;;
81714;SDS011;71125;44.066;2.982;2023-07-09T08:47:26;5.57;;;2.55;;
81714;SDS011;71125;44.066;2.982;2023-07-09T08:50:09;8.60;;;2.70;;
81714;SDS011;71125;44.066;2.982;2023-07-09T08:52:37;6.20;;;2.55;;
81714;SDS011;71125;44.066;2.982;2023-07-09T08:55:06;4.95;;;2.63;;
81714;SDS011;71125;44.066;2.982;2023-07-09T08:57:34;4.10;;;2.38;;
81714;SDS011;71125;44.066;2.982;2023-07-09T09:00:02;5.15;;;2.58;;
81714;SDS011;71125;44.066;2.982;2023-07-09T09:04:58;7.20;;;2.53;;
81714;SDS011;71125;44.066;2.982;2023-07-09T09:07:37;5.40;;;2.80;;
81714;SDS011;71125;44.066;2.982;2023-07-09T09:10:04;5.72;;;2.17;;
81714;SDS011;71125;44.066;2.982;2023-07-09T09:12:35;9.18;;;2.30;;
81714;SDS011;71125;44.066;2.982;2023-07-09T09:15:03;4.82;;;2.42;;
81714;SDS011;71125;44.066;2.982;2023-07-09T09:17:32;8.93;;;2.60;;
81714;SDS011;71125;44.066;2.982;2023-07-09T09:20:03;4.43;;;2.30;;
81714;SDS011;71125;44.066;2.982;2023-07-09T09:22:40;5.47;;;2.30;;
81714;SDS011;71125;44.066;2.982;2023-07-09T09:27:33;5.60;;;2.42;;
81714;SDS011;71125;44.066;2.982;2023-07-09T09:29:59;6.93;;;2.35;;
81714;SDS011;71125;44.066;2.982;2023-07-09T09:32:26;4.80;;;2.50;;
81714;SDS011;71125;44.066;2.982;2023-07-09T09:34:53;5.80;;;2.72;;
81714;SDS011;71125;44.066;2.982;2023-07-09T09:37:23;4.85;;;2.35;;
81714;SDS011;71125;44.066;2.982;2023-07-09T09:39:50;7.53;;;2.40;;
81714;SDS011;71125;44.066;2.982;2023-07-09T09:42:16;5.68;;;2.25;;
81714;SDS011;71125;44.066;2.982;2023-07-09T09:44:43;3.72;;;2.30;;
81714;SDS011;71125;44.066;2.982;2023-07-09T09:47:10;7.88;;;2.78;;
81714;SDS011;71125;44.066;2.982;2023-07-09T09:49:42;6.55;;;2.42;;
81714;SDS011;71125;44.066;2.982;2023-07-09T09:52:15;4.57;;;2.00;;
81714;SDS011;71125;44.066;2.982;2023-07-09T09:54:51;10.32;;;2.08;;
81714;SDS011;71125;44.066;2.982;2023-07-09T09:57:22;8.27;;;2.92;;
81714;SDS011;71125;44.066;2.982;2023-07-09T09:59:48;5.50;;;2.30;;
81714;SDS011;71125;44.066;2.982;2023-07-09T10:02:19;4.60;;;2.72;;
81714;SDS011;71125;44.066;2.982;2023-07-09T10:04:45;5.32;;;2.35;;
81714;SDS011;71125;44.066;2.982;2023-07-09T10:09:49;7.20;;;2.33;;
81714;SDS011;71125;44.066;2.982;2023-07-09T10:15:01;4.95;;;2.08;;
81714;SDS011;71125;44.066;2.982;2023-07-09T10:17:36;5.13;;;2.50;;
81714;SDS011;71125;44.066;2.982;2023-07-09T10:25:32;5.32;;;2.60;;
81714;SDS011;71125;44.066;2.982;2023-07-09T10:28:17;5.97;;;2.80;;
81714;SDS011;71125;44.066;2.982;2023-07-09T10:34:07;6.00;;;2.42;;
81714;SDS011;71125;44.066;2.982;2023-07-09T10:41:02;4.47;;;2.45;;
81714;SDS011;71125;44.066;2.982;2023-07-09T10:45:57;6.18;;;2.47;;
81714;SDS011;71125;44.066;2.982;2023-07-09T10:50:54;4.78;;;2.38;;
81714;SDS011;71125;44.066;2.982;2023-07-09T10:53:33;6.80;;;2.42;;
81714;SDS011;71125;44.066;2.982;2023-07-09T10:56:07;9.52;;;2.60;;
81714;SDS011;71125;44.066;2.982;2023-07-09T10:58:37;6.72;;;1.90;;
81714;SDS011;71125;44.066;2.982;2023-07-09T11:01:06;6.03;;;2.30;;
81714;SDS011;71125;44.066;2.982;2023-07-09T11:03:37;6.13;;;2.42;;
81714;SDS011;71125;44.066;2.982;2023-07-09T11:06:04;4.72;;;1.98;;
81714;SDS011;71125;44.066;2.982;2023-07-09T11:08:36;4.65;;;2.20;;
81714;SDS011;71125;44.066;2.982;2023-07-09T11:11:05;6.45;;;2.53;;
81714;SDS011;71125;44.066;2.982;2023-07-09T11:13:39;4.70;;;2.42;;
81714;SDS011;71125;44.066;2.982;2023-07-09T11:18:32;5.60;;;3.50;;
81714;SDS011;71125;44.066;2.982;2023-07-09T11:23:58;8.90;;;4.00;;
81714;SDS011;71125;44.066;2.982;2023-07-09T11:26:28;5.68;;;2.92;;
81714;SDS011;71125;44.066;2.982;2023-07-09T11:34:00;5.68;;;2.90;;
81714;SDS011;71125;44.066;2.982;2023-07-09T11:36:28;7.60;;;3.10;;
81714;SDS011;71125;44.066;2.982;2023-07-09T11:38:54;5.72;;;2.88;;
81714;SDS011;71125;44.066;2.982;2023-07-09T11:44:16;6.90;;;2.83;;
81714;SDS011;71125;44.066;2.982;2023-07-09T11:46:54;8.23;;;2.53;;
81714;SDS011;71125;44.066;2.982;2023-07-09T11:49:21;5.03;;;2.42;;
81714;SDS011;71125;44.066;2.982;2023-07-09T11:51:51;4.75;;;2.45;;
81714;SDS011;71125;44.066;2.982;2023-07-09T11:54:18;4.97;;;2.45;;
81714;SDS011;71125;44.066;2.982;2023-07-09T11:56:58;6.22;;;2.55;;
81714;SDS011;71125;44.066;2.982;2023-07-09T11:59:25;3.58;;;2.10;;
81714;SDS011;71125;44.066;2.982;2023-07-09T12:01:52;4.55;;;2.58;;
81714;SDS011;71125;44.066;2.982;2023-07-09T12:04:21;5.35;;;2.33;;
81714;SDS011;71125;44.066;2.982;2023-07-09T12:06:48;7.35;;;2.25;;
81714;SDS011;71125;44.066;2.982;2023-07-09T12:09:18;5.75;;;2.33;;
81714;SDS011;71125;44.066;2.982;2023-07-09T12:11:48;5.90;;;2.15;;
81714;SDS011;71125;44.066;2.982;2023-07-09T12:14:15;3.67;;;1.70;;
81714;SDS011;71125;44.066;2.982;2023-07-09T12:16:43;5.30;;;1.90;;
81714;SDS011;71125;44.066;2.982;2023-07-09T12:19:13;7.75;;;2.45;;
81714;SDS011;71125;44.066;2.982;2023-07-09T12:21:40;4.40;;;1.77;;
81714;SDS011;71125;44.066;2.982;2023-07-09T12:24:19;4.63;;;2.00;;
81714;SDS011;71125;44.066;2.982;2023-07-09T12:26:49;4.45;;;2.40;;
81714;SDS011;71125;44.066;2.982;2023-07-09T12:29:15;7.30;;;2.33;;
81714;SDS011;71125;44.066;2.982;2023-07-09T12:31:41;6.07;;;2.45;;
81714;SDS011;71125;44.066;2.982;2023-07-09T12:34:12;5.30;;;3.03;;
81714;SDS011;71125;44.066;2.982;2023-07-09T12:36:39;4.97;;;2.25;;
81714;SDS011;71125;44.066;2.982;2023-07-09T12:39:09;3.95;;;1.80;;
81714;SDS011;71125;44.066;2.982;2023-07-09T12:41:38;7.18;;;2.33;;
81714;SDS011;71125;44.066;2.982;2023-07-09T12:44:04;8.60;;;2.42;;
81714;SDS011;71125;44.066;2.982;2023-07-09T12:46:31;8.20;;;2.60;;
81714;SDS011;71125;44.066;2.982;2023-07-09T12:48:57;4.28;;;1.90;;
81714;SDS011;71125;44.066;2.982;2023-07-09T12:51:24;9.95;;;2.50;;
81714;SDS011;71125;44.066;2.982;2023-07-09T12:54:00;5.93;;;2.13;;
81714;SDS011;71125;44.066;2.982;2023-07-09T12:56:26;6.63;;;2.10;;
81714;SDS011;71125;44.066;2.982;2023-07-09T12:58:55;8.55;;;2.60;;
81714;SDS011;71125;44.066;2.982;2023-07-09T13:01:22;7.28;;;1.80;;
81714;SDS011;71125;44.066;2.982;2023-07-09T13:03:54;5.20;;;2.00;;
81714;SDS011;71125;44.066;2.982;2023-07-09T13:06:24;4.28;;;2.30;;
81714;SDS011;71125;44.066;2.982;2023-07-09T13:08:54;6.43;;;2.10;;
81714;SDS011;71125;44.066;2.982;2023-07-09T13:11:21;7.47;;;2.10;;
81714;SDS011;71125;44.066;2.982;2023-07-09T13:13:57;8.77;;;2.40;;
81714;SDS011;71125;44.066;2.982;2023-07-09T13:16:24;4.90;;;2.10;;
81714;SDS011;71125;44.066;2.982;2023-07-09T13:18:50;6.72;;;1.90;;
81714;SDS011;71125;44.066;2.982;2023-07-09T13:21:17;8.02;;;1.98;;
81714;SDS011;71125;44.066;2.982;2023-07-09T13:23:44;5.97;;;2.45;;
81714;SDS011;71125;44.066;2.982;2023-07-09T13:26:11;8.77;;;2.28;;
81714;SDS011;71125;44.066;2.982;2023-07-09T13:28:37;8.73;;;2.20;;
81714;SDS011;71125;44.066;2.982;2023-07-09T13:31:08;6.95;;;2.13;;
81714;SDS011;71125;44.066;2.982;2023-07-09T13:33:36;4.70;;;1.80;;
81714;SDS011;71125;44.066;2.982;2023-07-09T13:36:02;11.18;;;2.10;;
81714;SDS011;71125;44.066;2.982;2023-07-09T13:38:29;4.93;;;1.92;;
81714;SDS011;71125;44.066;2.982;2023-07-09T13:40:56;4.20;;;1.95;;
81714;SDS011;71125;44.066;2.982;2023-07-09T13:43:30;8.13;;;2.28;;
81714;SDS011;71125;44.066;2.982;2023-07-09T13:45:57;9.10;;;2.60;;
81714;SDS011;71125;44.066;2.982;2023-07-09T13:48:23;12.55;;;2.75;;
81714;SDS011;71125;44.066;2.982;2023-07-09T13:50:51;8.95;;;2.40;;
81714;SDS011;71125;44.066;2.982;2023-07-09T13:53:19;7.35;;;2.08;;
81714;SDS011;71125;44.066;2.982;2023-07-09T13:55:46;7.05;;;2.30;;
81714;SDS011;71125;44.066;2.982;2023-07-09T13:58:13;8.43;;;1.92;;
81714;SDS011;71125;44.066;2.982;2023-07-09T14:00:40;10.25;;;2.15;;
81714;SDS011;71125;44.066;2.982;2023-07-09T14:03:14;8.23;;;2.55;;
81714;SDS011;71125;44.066;2.982;2023-07-09T14:05:40;7.60;;;2.20;;
81714;SDS011;71125;44.066;2.982;2023-07-09T14:08:07;7.85;;;2.33;;
81714;SDS011;71125;44.066;2.982;2023-07-09T14:10:33;8.05;;;2.17;;
81714;SDS011;71125;44.066;2.982;2023-07-09T14:13:00;9.60;;;2.55;;
81714;SDS011;71125;44.066;2.982;2023-07-09T14:15:27;7.20;;;2.20;;
81714;SDS011;71125;44.066;2.982;2023-07-09T14:17:53;6.28;;;2.22;;
81714;SDS011;71125;44.066;2.982;2023-07-09T14:20:22;5.82;;;1.90;;
81714;SDS011;71125;44.066;2.982;2023-07-09T14:22:49;8.80;;;2.20;;
81714;SDS011;71125;44.066;2.982;2023-07-09T14:25:23;4.30;;;1.90;;
81714;SDS011;71125;44.066;2.982;2023-07-09T14:27:50;7.38;;;2.03;;
81714;SDS011;71125;44.066;2.982;2023-07-09T14:30:17;7.00;;;2.15;;
81714;SDS011;71125;44.066;2.982;2023-07-09T14:32:44;8.88;;;2.10;;
81714;SDS011;71125;44.066;2.982;2023-07-09T14:37:36;9.95;;;2.35;;
81714;SDS011;71125;44.066;2.982;2023-07-09T14:40:03;12.43;;;2.65;;
81714;SDS011;71125;44.066;2.982;2023-07-09T14:42:30;8.00;;;2.33;;
81714;SDS011;71125;44.066;2.982;2023-07-09T14:44:56;8.10;;;2.28;;
81714;SDS011;71125;44.066;2.982;2023-07-09T14:47:22;7.47;;;2.10;;
81714;SDS011;71125;44.066;2.982;2023-07-09T14:49:49;12.45;;;2.45;;
81714;SDS011;71125;44.066;2.982;2023-07-09T14:52:19;6.50;;;2.03;;
81714;SDS011;71125;44.066;2.982;2023-07-09T14:54:49;9.38;;;2.92;;
81714;SDS011;71125;44.066;2.982;2023-07-09T14:57:23;7.57;;;2.50;;
81714;SDS011;71125;44.066;2.982;2023-07-09T14:59:51;8.95;;;2.47;;
81714;SDS011;71125;44.066;2.982;2023-07-09T15:04:46;7.35;;;1.98;;
81714;SDS011;71125;44.066;2.982;2023-07-09T15:07:13;9.73;;;2.35;;
81714;SDS011;71125;44.066;2.982;2023-07-09T15:09:39;9.05;;;2.30;;
81714;SDS011;71125;44.066;2.982;2023-07-09T15:12:08;8.35;;;2.10;;
81714;SDS011;71125;44.066;2.982;2023-07-09T15:14:38;10.10;;;2.50;;
81714;SDS011;71125;44.066;2.982;2023-07-09T15:17:05;10.65;;;2.83;;
81714;SDS011;71125;44.066;2.982;2023-07-09T15:19:31;8.85;;;2.33;;
81714;SDS011;71125;44.066;2.982;2023-07-09T15:21:57;9.70;;;2.28;;
81714;SDS011;71125;44.066;2.982;2023-07-09T15:24:27;9.32;;;2.40;;
81714;SDS011;71125;44.066;2.982;2023-07-09T15:26:54;8.13;;;2.50;;
81714;SDS011;71125;44.066;2.982;2023-07-09T15:29:21;10.50;;;2.15;;
81714;SDS011;71125;44.066;2.982;2023-07-09T15:31:48;12.70;;;2.45;;
81714;SDS011;71125;44.066;2.982;2023-07-09T15:34:14;8.57;;;2.20;;
81714;SDS011;71125;44.066;2.982;2023-07-09T15:36:50;9.65;;;2.47;;
81714;SDS011;71125;44.066;2.982;2023-07-09T15:39:19;8.10;;;2.28;;
81714;SDS011;71125;44.066;2.982;2023-07-09T15:41:46;8.98;;;2.70;;
81714;SDS011;71125;44.066;2.982;2023-07-09T15:44:12;9.30;;;2.65;;
81714;SDS011;71125;44.066;2.982;2023-07-09T15:46:39;7.30;;;2.42;;